Time;durP1;ratioP1;P1;durP2;ratioP2;P2;SDS_P1;SDS_P2;PMS_P1;PMS_P2;Temp;Humidity;BMP_temperature;BMP_pressure;BME280_temperature;BME280_humidity;BME280_pressure;Samples;Min_cycle;Max_cycle;Signal;HPM_P1;HPM_P2
2022/07/15 00:01:42;;;;;;;5.83;2.40;;;;;;;;;;5059110;28;20182;-87
2022/07/15 00:04:45;;;;;;;4.63;2.53;;;;;;;;;;5058714;28;20245;-87
2022/07/15 00:07:50;;;;;;;4.40;2.87;;;;;;;;;;5081922;28;20222;-87
2022/07/15 00:10:54;;;;;;;5.23;2.37;;;;;;;;;;5061460;28;20183;-81
2022/07/15 00:13:58;;;;;;;3.87;2.33;;;;;;;;;;5074018;28;20546;-81
2022/07/15 00:17:03;;;;;;;4.00;2.83;;;;;;;;;;5073255;28;20546;-81
2022/07/15 00:20:09;;;;;;;3.70;2.47;;;;;;;;;;5073947;28;20518;-81
2022/07/15 00:23:14;;;;;;;2.63;2.23;;;;;;;;;;5073940;28;20183;-81
2022/07/15 00:26:18;;;;;;;5.00;2.63;;;;;;;;;;5074384;28;20214;-81
2022/07/15 00:29:23;;;;;;;9.93;2.93;;;;;;;;;;5062869;28;20182;-82
2022/07/15 00:32:27;;;;;;;9.17;3.10;;;;;;;;;;5074510;28;20179;-82
2022/07/15 00:35:33;;;;;;;3.97;2.83;;;;;;;;;;5062340;28;20179;-82
2022/07/15 00:38:36;;;;;;;3.20;2.70;;;;;;;;;;5052216;28;20171;-86
2022/07/15 00:41:43;;;;;;;5.40;2.70;;;;;;;;;;5052140;28;20176;-86
2022/07/15 00:44:47;;;;;;;5.73;2.93;;;;;;;;;;5041085;28;20188;-86
2022/07/15 00:47:53;;;;;;;6.60;2.83;;;;;;;;;;5040521;28;20219;-86
2022/07/15 00:50:58;;;;;;;6.37;3.23;;;;;;;;;;5063170;28;20172;-86
2022/07/15 00:54:05;;;;;;;6.53;2.60;;;;;;;;;;5040898;28;20180;-86
2022/07/15 00:57:09;;;;;;;7.63;3.17;;;;;;;;;;5051660;28;20227;-86
2022/07/15 01:00:14;;;;;;;4.77;2.40;;;;;;;;;;5051711;28;20183;-86
2022/07/15 01:03:20;;;;;;;6.17;3.33;;;;;;;;;;5051686;28;20187;-86
2022/07/15 01:06:26;;;;;;;5.40;2.73;;;;;;;;;;5051701;28;20218;-86
2022/07/15 01:09:30;;;;;;;5.93;2.50;;;;;;;;;;5040328;28;20176;-86
2022/07/15 01:12:40;;;;;;;4.27;2.10;;;;;;;;;;5039877;28;20179;-86
2022/07/15 01:15:45;;;;;;;6.17;2.60;;;;;;;;;;5051675;28;20191;-86
2022/07/15 01:18:49;;;;;;;5.27;2.10;;;;;;;;;;5051444;28;20171;-86
2022/07/15 01:21:53;;;;;;;4.27;2.20;;;;;;;;;;5061463;28;20179;-86
2022/07/15 01:24:58;;;;;;;5.30;2.10;;;;;;;;;;5051397;28;20175;-86
2022/07/15 01:28:05;;;;;;;7.30;1.97;;;;;;;;;;5040193;28;20223;-86
2022/07/15 01:31:10;;;;;;;5.30;2.07;;;;;;;;;;5062601;28;20184;-86
2022/07/15 01:34:14;;;;;;;6.50;2.27;;;;;;;;;;5051234;28;20187;-86
2022/07/15 01:37:19;;;;;;;2.83;1.77;;;;;;;;;;5039824;28;20211;-86
2022/07/15 01:40:30;;;;;;;4.50;1.90;;;;;;;;;;5051308;28;20362;-86
2022/07/15 01:43:34;;;;;;;6.33;1.97;;;;;;;;;;5051171;28;20176;-86
2022/07/15 01:46:38;;;;;;;4.13;1.70;;;;;;;;;;5039205;28;20215;-86
2022/07/15 01:49:43;;;;;;;4.87;1.70;;;;;;;;;;5062638;28;20645;-86
2022/07/15 01:52:51;;;;;;;7.67;2.10;;;;;;;;;;5061974;28;20203;-86
2022/07/15 01:55:55;;;;;;;4.23;1.57;;;;;;;;;;5050302;28;20531;-85
2022/07/15 01:58:59;;;;;;;4.17;1.80;;;;;;;;;;5084425;23;20231;-86
2022/07/15 02:02:03;;;;;;;4.20;1.40;;;;;;;;;;5051055;28;20187;-85
2022/07/15 02:05:08;;;;;;;3.80;1.80;;;;;;;;;;5040097;28;20542;-85
2022/07/15 02:08:12;;;;;;;3.57;1.80;;;;;;;;;;5051008;28;20705;-85
2022/07/15 02:11:16;;;;;;;3.40;1.87;;;;;;;;;;5020183;28;20180;-85
2022/07/15 02:14:24;;;;;;;6.40;1.73;;;;;;;;;;5020999;28;20180;-85
2022/07/15 02:17:31;;;;;;;7.30;1.93;;;;;;;;;;5031976;28;20211;-85
2022/07/15 02:20:34;;;;;;;5.90;2.10;;;;;;;;;;5042722;28;20626;-85
2022/07/15 02:23:38;;;;;;;3.47;1.60;;;;;;;;;;5021169;28;20180;-85
2022/07/15 02:26:44;;;;;;;3.87;1.53;;;;;;;;;;5043411;28;20175;-85
2022/07/15 02:29:49;;;;;;;5.90;2.23;;;;;;;;;;5020313;28;20203;-85
2022/07/15 02:32:55;;;;;;;9.70;2.00;;;;;;;;;;5020502;28;20524;-85
2022/07/15 02:36:00;;;;;;;3.47;1.60;;;;;;;;;;5020348;28;20172;-85
2022/07/15 02:39:04;;;;;;;3.47;1.60;;;;;;;;;;5019541;28;20212;-85
2022/07/15 02:42:10;;;;;;;5.77;2.10;;;;;;;;;;5000855;28;20763;-85
2022/07/15 02:45:19;;;;;;;6.50;2.07;;;;;;;;;;5011681;28;20184;-85
2022/07/15 02:48:23;;;;;;;4.20;1.70;;;;;;;;;;5010999;28;20228;-85
2022/07/15 02:51:28;;;;;;;4.50;1.80;;;;;;;;;;5000382;28;20643;-85
2022/07/15 02:54:32;;;;;;;3.33;1.60;;;;;;;;;;5011700;28;20181;-85
2022/07/15 02:57:37;;;;;;;7.03;1.83;;;;;;;;;;5011526;28;20216;-85
2022/07/15 03:00:41;;;;;;;3.40;1.83;;;;;;;;;;5022488;28;20200;-85
2022/07/15 03:03:46;;;;;;;4.70;1.83;;;;;;;;;;5029342;28;20203;-86
2022/07/15 03:06:56;;;;;;;2.73;1.93;;;;;;;;;;5020537;28;20184;-85
2022/07/15 03:10:01;;;;;;;3.50;1.63;;;;;;;;;;5019885;28;20642;-85
2022/07/15 03:13:05;;;;;;;5.00;2.00;;;;;;;;;;5019743;28;20512;-85
2022/07/15 03:16:10;;;;;;;5.13;2.30;;;;;;;;;;5019409;28;20627;-85
2022/07/15 03:19:15;;;;;;;6.40;2.30;;;;;;;;;;4999943;28;20172;-85
2022/07/15 03:22:24;;;;;;;5.27;2.07;;;;;;;;;;5000622;28;20177;-85
2022/07/15 03:25:28;;;;;;;8.13;1.87;;;;;;;;;;5021456;28;20557;-88
2022/07/15 03:28:32;;;;;;;5.20;2.13;;;;;;;;;;5021174;28;20225;-86
2022/07/15 03:31:37;;;;;;;4.30;1.87;;;;;;;;;;5022025;28;20181;-85
2022/07/15 03:34:43;;;;;;;4.30;1.80;;;;;;;;;;5028789;28;20200;-85
2022/07/15 03:37:47;;;;;;;6.60;2.10;;;;;;;;;;5019850;28;20223;-83
2022/07/15 03:40:51;;;;;;;4.80;2.27;;;;;;;;;;5029895;28;20176;-88
2022/07/15 03:43:55;;;;;;;6.33;1.90;;;;;;;;;;5019546;28;20195;-86
2022/07/15 03:47:00;;;;;;;4.47;1.87;;;;;;;;;;5035707;28;20658;-85
2022/07/15 03:50:04;;;;;;;5.50;1.90;;;;;;;;;;5040998;28;20196;-86
2022/07/15 03:53:11;;;;;;;4.27;1.77;;;;;;;;;;5024368;28;20183;-87
2022/07/15 03:56:16;;;;;;;2.57;1.63;;;;;;;;;;5023978;28;20176;-87
2022/07/15 03:59:20;;;;;;;3.87;1.80;;;;;;;;;;5024183;28;20172;-87
2022/07/15 04:02:25;;;;;;;4.97;1.90;;;;;;;;;;5046933;28;20180;-88
2022/07/15 04:05:29;;;;;;;6.60;1.90;;;;;;;;;;5046979;28;20176;-88
2022/07/15 04:08:33;;;;;;;5.40;2.00;;;;;;;;;;5023573;28;20223;-87
2022/07/15 04:11:41;;;;;;;4.33;2.10;;;;;;;;;;5024495;28;20180;-87
2022/07/15 04:14:46;;;;;;;9.17;1.80;;;;;;;;;;5034861;28;20192;-86
2022/07/15 04:17:54;;;;;;;6.20;2.00;;;;;;;;;;5043602;28;20216;-87
2022/07/15 04:21:01;;;;;;;6.40;1.87;;;;;;;;;;5024798;28;20184;-88
2022/07/15 04:24:05;;;;;;;5.27;1.70;;;;;;;;;;5024425;28;20199;-88
2022/07/15 04:27:11;;;;;;;3.93;1.60;;;;;;;;;;5034838;28;20212;-87
2022/07/15 04:30:15;;;;;;;5.83;1.73;;;;;;;;;;5023709;28;20176;-88
2022/07/15 04:33:25;;;;;;;7.70;2.17;;;;;;;;;;5023350;28;20177;-87
2022/07/15 04:36:29;;;;;;;4.43;1.70;;;;;;;;;;5039800;28;20188;-87
2022/07/15 04:39:33;;;;;;;3.10;1.97;;;;;;;;;;5033426;28;20176;-87
2022/07/15 04:42:37;;;;;;;4.97;1.60;;;;;;;;;;5022479;28;20524;-87
2022/07/15 04:45:45;;;;;;;6.27;2.00;;;;;;;;;;5022340;28;20181;-87
2022/07/15 04:52:16;;;;;;;4.00;2.00;;;;;;;;;;5033522;28;20184;-87
2022/07/15 04:55:23;;;;;;;5.53;1.70;;;;;;;;;;5022554;28;20627;-87
2022/07/15 04:58:34;;;;;;;5.27;1.73;;;;;;;;;;5002739;28;20564;-87
2022/07/15 05:01:41;;;;;;;6.87;1.93;;;;;;;;;;5013586;28;20181;-87
2022/07/15 05:04:47;;;;;;;5.57;1.80;;;;;;;;;;5014071;28;20204;-87
2022/07/15 05:07:52;;;;;;;6.13;1.93;;;;;;;;;;5006527;28;20227;-88
2022/07/15 05:10:58;;;;;;;5.63;1.80;;;;;;;;;;5022734;28;20188;-87
2022/07/15 05:14:01;;;;;;;3.87;1.57;;;;;;;;;;5011927;28;20655;-87
2022/07/15 05:17:09;;;;;;;6.63;1.90;;;;;;;;;;5023846;28;20185;-87
2022/07/15 05:20:13;;;;;;;6.83;1.80;;;;;;;;;;5019316;28;20196;-87
2022/07/15 05:23:18;;;;;;;5.20;1.90;;;;;;;;;;5032094;28;20176;-87
2022/07/15 05:26:27;;;;;;;4.60;1.93;;;;;;;;;;5020977;28;20172;-87
2022/07/15 05:29:31;;;;;;;6.37;1.90;;;;;;;;;;5029771;28;20207;-87
2022/07/15 05:32:35;;;;;;;5.47;2.27;;;;;;;;;;5029558;28;20184;-87
2022/07/15 05:35:44;;;;;;;6.73;2.23;;;;;;;;;;5021409;28;20184;-87
2022/07/15 05:38:49;;;;;;;7.53;1.83;;;;;;;;;;5020008;28;20207;-86
2022/07/15 05:41:58;;;;;;;5.43;1.90;;;;;;;;;;5031492;28;20630;-87
2022/07/15 05:45:07;;;;;;;5.73;2.20;;;;;;;;;;5042005;28;20196;-87
2022/07/15 05:48:13;;;;;;;6.77;1.70;;;;;;;;;;5000132;28;20224;-86
2022/07/15 05:51:25;;;;;;;5.37;1.90;;;;;;;;;;5012858;28;20521;-86
2022/07/15 05:54:29;;;;;;;3.43;1.80;;;;;;;;;;5022555;28;20184;-86
2022/07/15 05:57:34;;;;;;;5.60;1.80;;;;;;;;;;5028913;28;20228;-87
2022/07/15 06:00:39;;;;;;;6.77;1.70;;;;;;;;;;5000221;28;20169;-86
2022/07/15 06:03:43;;;;;;;8.57;1.70;;;;;;;;;;5028973;28;20187;-85
2022/07/15 06:06:47;;;;;;;5.97;1.60;;;;;;;;;;5031264;28;20618;-86
2022/07/15 06:09:51;;;;;;;3.33;1.40;;;;;;;;;;5019406;28;20204;-86
2022/07/15 06:12:57;;;;;;;5.27;1.60;;;;;;;;;;5030282;28;20663;-86
2022/07/15 06:16:01;;;;;;;2.30;1.40;;;;;;;;;;5020172;28;20176;-86
2022/07/15 06:19:08;;;;;;;3.40;1.73;;;;;;;;;;5031620;28;20216;-86
2022/07/15 06:22:14;;;;;;;7.87;1.83;;;;;;;;;;5030656;28;20512;-86
2022/07/15 06:25:17;;;;;;;4.73;1.70;;;;;;;;;;5010417;28;20532;-86
2022/07/15 06:28:22;;;;;;;5.90;1.60;;;;;;;;;;5019491;28;20224;-86
2022/07/15 06:31:26;;;;;;;6.97;1.87;;;;;;;;;;5011488;28;20204;-85
2022/07/15 06:34:31;;;;;;;4.77;1.60;;;;;;;;;;5023349;28;20193;-85
2022/07/15 06:37:35;;;;;;;4.20;1.20;;;;;;;;;;5010223;28;20224;-86
2022/07/15 06:40:39;;;;;;;4.30;1.57;;;;;;;;;;5021807;28;20177;-85
2022/07/15 06:43:45;;;;;;;5.27;1.80;;;;;;;;;;5012412;28;20536;-85
2022/07/15 06:47:06;;;;;;;5.63;1.40;;;;;;;;;;5011875;28;20189;-85
2022/07/15 06:50:10;;;;;;;5.93;1.33;;;;;;;;;;5010383;28;20204;-85
2022/07/15 06:53:18;;;;;;;3.00;1.30;;;;;;;;;;5014645;28;20184;-85
2022/07/15 06:56:22;;;;;;;4.87;1.37;;;;;;;;;;5036270;28;20195;-85
2022/07/15 06:59:27;;;;;;;5.20;1.47;;;;;;;;;;5040813;28;20540;-89
2022/07/15 07:02:32;;;;;;;4.70;1.50;;;;;;;;;;5018582;28;20200;-85
2022/07/15 07:05:36;;;;;;;4.93;1.20;;;;;;;;;;5021159;28;20208;-86
2022/07/15 07:08:40;;;;;;;3.57;1.37;;;;;;;;;;5015780;28;20228;-85
2022/07/15 07:11:45;;;;;;;4.10;1.00;;;;;;;;;;5018624;28;20195;-86
2022/07/15 07:14:49;;;;;;;6.20;1.43;;;;;;;;;;5018262;28;20192;-85
2022/07/15 07:17:53;;;;;;;5.07;1.50;;;;;;;;;;5018176;28;20571;-85
2022/07/15 07:20:57;;;;;;;3.37;1.60;;;;;;;;;;5021169;28;20184;-86
2022/07/15 07:24:02;;;;;;;2.90;1.43;;;;;;;;;;5022386;28;20646;-84
2022/07/15 07:27:06;;;;;;;4.47;1.30;;;;;;;;;;5044597;28;20196;-85
2022/07/15 07:30:10;;;;;;;3.20;1.20;;;;;;;;;;5033494;28;20199;-90
2022/07/15 07:33:14;;;;;;;5.13;1.30;;;;;;;;;;5002541;28;20177;-90
2022/07/15 07:36:17;;;;;;;4.53;1.47;;;;;;;;;;5026272;28;20191;-91
2022/07/15 07:39:22;;;;;;;7.13;1.60;;;;;;;;;;5045815;28;20192;-91
2022/07/15 07:42:36;;;;;;;4.33;1.60;;;;;;;;;;5014444;28;20185;-91
2022/07/15 07:45:39;;;;;;;3.53;1.07;;;;;;;;;;5024232;28;20521;-91
2022/07/15 07:48:44;;;;;;;5.00;1.10;;;;;;;;;;5013475;28;20228;-91
2022/07/15 07:51:48;;;;;;;3.60;1.20;;;;;;;;;;5019478;28;20188;-92
2022/07/15 07:54:52;;;;;;;6.50;1.60;;;;;;;;;;5025151;28;20651;-91
2022/07/15 08:00:58;;;;;;;2.80;1.10;;;;;;;;;;5055981;28;20229;-78
2022/07/15 08:04:02;;;;;;;7.17;1.60;;;;;;;;;;5033111;28;20198;-79
2022/07/15 08:07:07;;;;;;;3.47;1.20;;;;;;;;;;5057040;28;20180;-78
2022/07/15 08:10:13;;;;;;;3.67;1.03;;;;;;;;;;5044862;28;20206;-79
2022/07/15 08:13:18;;;;;;;4.80;1.38;;;;;;;;;;5025834;28;20194;-79
2022/07/15 08:16:22;;;;;;;2.90;1.23;;;;;;;;;;5056176;28;20184;-78
2022/07/15 08:19:26;;;;;;;3.53;1.17;;;;;;;;;;5056552;28;20187;-78
2022/07/15 08:22:31;;;;;;;3.08;1.30;;;;;;;;;;5044252;28;20215;-79
2022/07/15 08:25:36;;;;;;;2.38;1.20;;;;;;;;;;5032873;28;20547;-78
2022/07/15 08:28:40;;;;;;;2.55;1.00;;;;;;;;;;5044310;28;20194;-78
2022/07/15 08:31:46;;;;;;;2.22;0.95;;;;;;;;;;5043727;28;20218;-79
2022/07/15 08:34:50;;;;;;;5.72;1.20;;;;;;;;;;5033090;28;20519;-79
2022/07/15 08:37:54;;;;;;;2.92;1.33;;;;;;;;;;5044312;28;20559;-80
2022/07/15 08:40:58;;;;;;;1.67;1.00;;;;;;;;;;5032500;28;20222;-79
2022/07/15 08:44:02;;;;;;;4.07;1.60;;;;;;;;;;5056391;28;20191;-78
2022/07/15 08:47:06;;;;;;;3.80;1.20;;;;;;;;;;5031850;28;20196;-78
2022/07/15 08:50:15;;;;;;;1.50;1.20;;;;;;;;;;5032577;28;20203;-79
2022/07/15 08:53:19;;;;;;;3.58;1.33;;;;;;;;;;5043778;28;20195;-79
2022/07/15 08:56:24;;;;;;;3.20;1.52;;;;;;;;;;5032457;28;20649;-79
2022/07/15 08:59:28;;;;;;;3.10;1.52;;;;;;;;;;5036311;28;20208;-80
2022/07/15 09:02:32;;;;;;;3.50;1.50;;;;;;;;;;5033521;28;20222;-80
2022/07/15 09:05:37;;;;;;;4.43;1.52;;;;;;;;;;5032058;28;20543;-80
2022/07/15 09:08:41;;;;;;;2.78;1.10;;;;;;;;;;5041574;28;20650;-81
2022/07/15 09:12:07;;;;;;;2.53;1.40;;;;;;;;;;5032298;28;20220;-80
2022/07/15 09:15:35;;;;;;;7.68;1.65;;;;;;;;;;5032425;28;20184;-80
2022/07/15 09:18:43;;;;;;;2.53;1.25;;;;;;;;;;5031670;28;20192;-80
2022/07/15 09:22:01;;;;;;;3.47;1.35;;;;;;;;;;5031560;28;20216;-80
2022/07/15 09:25:06;;;;;;;3.05;1.33;;;;;;;;;;5055691;28;20192;-80
2022/07/15 09:28:11;;;;;;;2.40;1.23;;;;;;;;;;5056244;28;20180;-80
2022/07/15 09:36:01;;;;;;;4.05;1.30;;;;;;;;;;5043051;28;20196;-80
2022/07/15 09:38:50;;;;;;;3.22;1.30;;;;;;;;;;5043692;28;20655;-81
2022/07/15 09:41:54;;;;;;;2.13;1.08;;;;;;;;;;5031526;28;20604;-80
2022/07/15 09:45:18;;;;;;;3.20;1.40;;;;;;;;;;5031350;28;20196;-81
2022/07/15 09:48:24;;;;;;;2.92;1.40;;;;;;;;;;5055093;28;20663;-80
2022/07/15 09:51:29;;;;;;;3.25;1.20;;;;;;;;;;5031893;28;20204;-80
2022/07/15 09:54:36;;;;;;;2.22;1.30;;;;;;;;;;5043040;28;20180;-80
2022/07/15 09:57:40;;;;;;;3.67;1.65;;;;;;;;;;5031200;28;20643;-80
2022/07/15 10:00:44;;;;;;;3.47;1.45;;;;;;;;;;5042831;28;20224;-80
2022/07/15 10:03:49;;;;;;;3.30;1.60;;;;;;;;;;5042899;28;20180;-80
2022/07/15 10:06:55;;;;;;;3.35;1.50;;;;;;;;;;5055336;28;20177;-80
2022/07/15 10:10:01;;;;;;;4.05;1.60;;;;;;;;;;5025942;28;20208;-80
2022/07/15 10:13:08;;;;;;;1.45;1.20;;;;;;;;;;5043056;28;20630;-80
2022/07/15 10:16:27;;;;;;;2.70;1.40;;;;;;;;;;5043356;28;20180;-80
2022/07/15 10:19:57;;;;;;;2.42;1.45;;;;;;;;;;5031102;28;20184;-80
2022/07/15 10:23:31;;;;;;;3.38;1.60;;;;;;;;;;5031070;28;20192;-80
2022/07/15 10:26:55;;;;;;;3.88;1.60;;;;;;;;;;5041810;28;20176;-80
2022/07/15 10:30:06;;;;;;;3.08;1.13;;;;;;;;;;5042720;28;20205;-81
2022/07/15 10:33:18;;;;;;;1.73;1.30;;;;;;;;;;5054735;28;20524;-80
2022/07/15 10:36:22;;;;;;;3.92;1.60;;;;;;;;;;5042617;28;20180;-81
2022/07/15 10:39:48;;;;;;;5.22;1.60;;;;;;;;;;5030997;28;20189;-81
2022/07/15 10:43:03;;;;;;;1.92;1.27;;;;;;;;;;5030541;28;20537;-81
2022/07/15 10:46:16;;;;;;;6.72;1.67;;;;;;;;;;5054726;28;20176;-81
2022/07/15 10:49:20;;;;;;;3.50;1.50;;;;;;;;;;5030862;28;20185;-81
2022/07/15 10:52:26;;;;;;;2.47;1.45;;;;;;;;;;5031100;28;20228;-80
2022/07/15 10:55:30;;;;;;;3.13;1.60;;;;;;;;;;5030705;28;20188;-81
2022/07/15 10:58:34;;;;;;;3.85;1.63;;;;;;;;;;5030600;28;20184;-80
2022/07/15 11:01:43;;;;;;;3.83;1.40;;;;;;;;;;5030077;28;20207;-80
2022/07/15 11:04:49;;;;;;;2.83;1.45;;;;;;;;;;5042105;28;20189;-80
2022/07/15 11:07:53;;;;;;;2.63;1.40;;;;;;;;;;5030445;28;20674;-81
2022/07/15 11:11:24;;;;;;;4.28;1.67;;;;;;;;;;5030374;28;20228;-81
2022/07/15 11:14:47;;;;;;;3.63;1.80;;;;;;;;;;5024940;28;20193;-81
2022/07/15 11:17:54;;;;;;;3.08;1.60;;;;;;;;;;5041477;28;20196;-80
2022/07/15 11:20:58;;;;;;;2.95;1.50;;;;;;;;;;5053980;28;20212;-81
2022/07/15 11:24:03;;;;;;;2.97;1.50;;;;;;;;;;5041928;28;20526;-80
2022/07/15 11:27:07;;;;;;;3.08;1.40;;;;;;;;;;5041509;28;20180;-80
2022/07/15 11:30:11;;;;;;;6.20;1.67;;;;;;;;;;5042013;28;20208;-81
2022/07/15 11:33:17;;;;;;;2.85;1.60;;;;;;;;;;5034543;28;20181;-80
2022/07/15 11:36:22;;;;;;;4.03;1.40;;;;;;;;;;5026684;28;20193;-80
2022/07/15 11:39:27;;;;;;;4.15;1.50;;;;;;;;;;5041191;28;20200;-80
2022/07/15 11:45:56;;;;;;;2.47;1.48;;;;;;;;;;5040889;28;20196;-81
2022/07/15 11:49:00;;;;;;;4.22;1.70;;;;;;;;;;5030801;28;20184;-80
2022/07/15 11:52:05;;;;;;;5.05;1.70;;;;;;;;;;5042558;28;20208;-80
2022/07/15 11:55:09;;;;;;;3.95;1.70;;;;;;;;;;5041561;28;20200;-80
2022/07/15 11:58:13;;;;;;;8.23;1.67;;;;;;;;;;5041193;28;20632;-80
2022/07/15 12:01:30;;;;;;;3.03;1.50;;;;;;;;;;5029470;28;20570;-81
2022/07/15 12:04:35;;;;;;;5.05;1.63;;;;;;;;;;5041471;28;20185;-80
2022/07/15 12:07:44;;;;;;;3.28;1.42;;;;;;;;;;5045306;28;20176;-79
2022/07/15 12:10:49;;;;;;;3.60;1.58;;;;;;;;;;5057013;28;20224;-79
2022/07/15 12:14:09;;;;;;;3.78;1.77;;;;;;;;;;5057470;28;20192;-79
2022/07/15 12:17:14;;;;;;;3.80;1.40;;;;;;;;;;5033417;28;20185;-80
2022/07/15 12:20:19;;;;;;;5.13;1.65;;;;;;;;;;5033924;28;20172;-81
2022/07/15 12:23:26;;;;;;;3.35;1.90;;;;;;;;;;5045054;28;20520;-80
2022/07/15 12:26:31;;;;;;;5.38;1.77;;;;;;;;;;5056807;28;20193;-80
2022/07/15 12:29:35;;;;;;;5.05;1.80;;;;;;;;;;5045268;28;20184;-80
2022/07/15 12:32:39;;;;;;;5.40;1.60;;;;;;;;;;5031788;28;20177;-79
2022/07/15 12:35:43;;;;;;;2.63;1.60;;;;;;;;;;5044254;28;20200;-80
2022/07/15 12:39:06;;;;;;;4.60;1.58;;;;;;;;;;5036272;28;20201;-80
2022/07/15 12:42:11;;;;;;;4.80;1.88;;;;;;;;;;5028858;28;20216;-80
2022/07/15 12:45:21;;;;;;;2.00;1.45;;;;;;;;;;5044679;28;20188;-80
2022/07/15 12:48:25;;;;;;;3.10;1.70;;;;;;;;;;5044362;28;20539;-81
2022/07/15 12:51:29;;;;;;;3.33;1.45;;;;;;;;;;5033502;28;20220;-80
2022/07/15 12:54:33;;;;;;;3.83;1.42;;;;;;;;;;5034323;28;20180;-79
2022/07/15 12:57:37;;;;;;;2.13;1.60;;;;;;;;;;5057448;28;20184;-79
2022/07/15 13:00:46;;;;;;;3.08;1.52;;;;;;;;;;5033714;28;20224;-80
2022/07/15 13:03:52;;;;;;;4.72;1.70;;;;;;;;;;5034086;28;20192;-80
2022/07/15 13:06:56;;;;;;;3.10;1.70;;;;;;;;;;5033886;28;20177;-80
2022/07/15 13:10:00;;;;;;;8.23;1.85;;;;;;;;;;5056902;28;20176;-81
2022/07/15 13:13:05;;;;;;;3.38;1.60;;;;;;;;;;5044640;28;20184;-80
2022/07/15 13:16:09;;;;;;;3.15;1.63;;;;;;;;;;5040147;28;20185;-80
2022/07/15 13:19:13;;;;;;;2.80;1.67;;;;;;;;;;5045040;28;20196;-81
2022/07/15 13:22:17;;;;;;;3.45;1.70;;;;;;;;;;5034027;28;20216;-81
2022/07/15 13:25:22;;;;;;;3.65;1.73;;;;;;;;;;5045278;28;20200;-81
2022/07/15 13:28:26;;;;;;;2.55;1.40;;;;;;;;;;5058233;28;20204;-81
2022/07/15 13:31:30;;;;;;;8.18;2.00;;;;;;;;;;5044113;28;20224;-81
2022/07/15 13:34:34;;;;;;;1.70;1.40;;;;;;;;;;5034583;28;20185;-81
2022/07/15 13:37:40;;;;;;;3.33;1.65;;;;;;;;;;5044947;28;20212;-81
2022/07/15 13:40:44;;;;;;;3.20;1.40;;;;;;;;;;5044366;28;20208;-81
2022/07/15 13:43:48;;;;;;;2.20;1.60;;;;;;;;;;5033477;28;20180;-81
2022/07/15 13:46:52;;;;;;;2.55;1.52;;;;;;;;;;5025861;28;20549;-81
2022/07/15 13:53:19;;;;;;;3.55;2.00;;;;;;;;;;5034175;28;20180;-81
2022/07/15 13:56:24;;;;;;;7.18;1.55;;;;;;;;;;5033857;28;20189;-81
2022/07/15 13:59:29;;;;;;;3.78;1.77;;;;;;;;;;5068674;22;20204;-86
2022/07/15 14:02:34;;;;;;;2.38;1.67;;;;;;;;;;5038166;28;20208;-86
2022/07/15 14:05:38;;;;;;;2.30;1.25;;;;;;;;;;5022618;28;20185;-85
2022/07/15 14:08:42;;;;;;;3.97;1.55;;;;;;;;;;5022283;28;20177;-85
2022/07/15 14:11:46;;;;;;;2.80;1.60;;;;;;;;;;5028962;28;20217;-85
2022/07/15 14:14:51;;;;;;;4.00;1.50;;;;;;;;;;5022316;28;20177;-85
2022/07/15 14:17:56;;;;;;;2.65;1.60;;;;;;;;;;5022140;28;20289;-86
2022/07/15 14:21:00;;;;;;;3.42;1.90;;;;;;;;;;5033170;28;20216;-85
2022/07/15 14:24:04;;;;;;;6.28;1.48;;;;;;;;;;5033769;28;20189;-86
2022/07/15 14:27:09;;;;;;;3.80;1.83;;;;;;;;;;5023549;28;20200;-86
2022/07/15 14:30:15;;;;;;;3.25;1.60;;;;;;;;;;5007765;28;20242;-86
2022/07/15 14:33:19;;;;;;;2.22;1.80;;;;;;;;;;5021763;28;20193;-86
2022/07/15 14:36:23;;;;;;;3.30;1.70;;;;;;;;;;5021856;28;20197;-85
2022/07/15 14:39:27;;;;;;;4.05;1.50;;;;;;;;;;5033150;28;20205;-86
2022/07/15 14:42:32;;;;;;;5.45;1.70;;;;;;;;;;5032854;28;20540;-86
2022/07/15 14:45:36;;;;;;;4.43;1.50;;;;;;;;;;5032245;28;20671;-86
2022/07/15 14:48:40;;;;;;;4.20;2.10;;;;;;;;;;5021656;28;20197;-86
2022/07/15 14:51:44;;;;;;;3.90;1.60;;;;;;;;;;5021365;28;20237;-86
2022/07/15 14:54:48;;;;;;;6.65;3.92;;;;;;;;;;5001844;28;20205;-84
2022/07/15 14:57:53;;;;;;;5.35;1.95;;;;;;;;;;5013496;28;20205;-85
2022/07/15 15:00:57;;;;;;;5.53;2.70;;;;;;;;;;5013080;28;20571;-84
2022/07/15 15:04:01;;;;;;;2.95;2.25;;;;;;;;;;5002022;28;20177;-84
2022/07/15 15:07:05;;;;;;;3.13;1.63;;;;;;;;;;5001987;28;20536;-85
2022/07/15 15:10:10;;;;;;;4.05;1.52;;;;;;;;;;5013312;28;20217;-85
2022/07/15 15:13:14;;;;;;;2.95;1.30;;;;;;;;;;5014454;28;20178;-85
2022/07/15 15:16:18;;;;;;;5.60;1.70;;;;;;;;;;4991212;28;20186;-85
2022/07/15 15:19:22;;;;;;;2.63;1.60;;;;;;;;;;5001941;28;20520;-85
2022/07/15 15:22:26;;;;;;;4.57;1.60;;;;;;;;;;5013523;28;20182;-85
2022/07/15 15:28:54;;;;;;;5.90;2.67;;;;;;;;;;5041621;28;20220;-85
2022/07/15 15:31:59;;;;;;;3.08;1.48;;;;;;;;;;5021738;28;20217;-85
2022/07/15 15:35:06;;;;;;;5.13;2.05;;;;;;;;;;5021826;28;20197;-85
2022/07/15 15:38:10;;;;;;;8.68;4.35;;;;;;;;;;5039630;28;20553;-84
2022/07/15 15:41:14;;;;;;;10.00;3.90;;;;;;;;;;5034279;28;20213;-84
2022/07/15 15:44:18;;;;;;;16.27;6.50;;;;;;;;;;5036962;28;20193;-84
2022/07/15 15:47:22;;;;;;;11.60;5.85;;;;;;;;;;5028199;28;20547;-84
2022/07/15 15:50:27;;;;;;;6.65;2.53;;;;;;;;;;5030133;28;20221;-84
2022/07/15 15:53:31;;;;;;;5.07;1.65;;;;;;;;;;5037054;28;20185;-84
2022/07/15 15:56:35;;;;;;;3.13;1.75;;;;;;;;;;5037321;28;20180;-84
2022/07/15 15:59:39;;;;;;;4.15;1.80;;;;;;;;;;5037220;28;20180;-83
2022/07/15 16:02:44;;;;;;;2.42;1.70;;;;;;;;;;5037441;28;20182;-84
2022/07/15 16:05:48;;;;;;;3.55;1.70;;;;;;;;;;5048180;28;20177;-85
2022/07/15 16:08:53;;;;;;;4.18;1.80;;;;;;;;;;5036856;28;20628;-83
2022/07/15 16:11:57;;;;;;;6.35;1.92;;;;;;;;;;5035973;28;20208;-83
2022/07/15 16:15:02;;;;;;;2.10;1.58;;;;;;;;;;5047407;28;20185;-84
2022/07/15 16:18:06;;;;;;;3.35;1.98;;;;;;;;;;5036402;28;20534;-83
2022/07/15 16:21:11;;;;;;;3.08;1.60;;;;;;;;;;5035717;28;20226;-83
2022/07/15 16:24:15;;;;;;;5.90;1.52;;;;;;;;;;5035836;28;20199;-83
2022/07/15 16:27:19;;;;;;;3.50;1.52;;;;;;;;;;5035950;28;20182;-83
2022/07/15 16:30:23;;;;;;;3.72;1.88;;;;;;;;;;5035940;28;20217;-83
2022/07/15 16:33:27;;;;;;;3.92;2.03;;;;;;;;;;5033992;28;20195;-83
2022/07/15 16:36:31;;;;;;;4.18;1.67;;;;;;;;;;5024205;28;20186;-83
2022/07/15 16:39:35;;;;;;;4.05;1.95;;;;;;;;;;5024342;28;20187;-81
2022/07/15 16:42:39;;;;;;;2.95;1.70;;;;;;;;;;5035432;28;20678;-83
2022/07/15 16:45:44;;;;;;;5.47;1.70;;;;;;;;;;5035808;28;20664;-86
2022/07/15 16:48:48;;;;;;;4.50;1.70;;;;;;;;;;5035895;28;20201;-83
2022/07/15 16:51:52;;;;;;;6.18;1.67;;;;;;;;;;5024020;28;20211;-84
2022/07/15 16:54:56;;;;;;;2.92;1.70;;;;;;;;;;5036148;28;20543;-83
2022/07/15 16:58:00;;;;;;;5.53;1.63;;;;;;;;;;5035997;28;20514;-83
2022/07/15 17:01:05;;;;;;;3.88;1.95;;;;;;;;;;5035192;28;20696;-84
2022/07/15 17:04:09;;;;;;;3.75;1.88;;;;;;;;;;5024032;28;20215;-83
2022/07/15 17:07:14;;;;;;;5.07;1.77;;;;;;;;;;5029891;28;20194;-83
2022/07/15 17:10:18;;;;;;;3.58;1.52;;;;;;;;;;5035115;28;20217;-83
2022/07/15 17:13:22;;;;;;;2.60;1.60;;;;;;;;;;5035530;28;20213;-84
2022/07/15 17:16:26;;;;;;;2.23;1.60;;;;;;;;;;5035176;28;20654;-84
2022/07/15 17:19:31;;;;;;;4.80;1.63;;;;;;;;;;5033696;28;20196;-83
2022/07/15 17:22:35;;;;;;;6.57;1.50;;;;;;;;;;5034101;28;20184;-83
2022/07/15 17:25:39;;;;;;;2.03;1.60;;;;;;;;;;5023807;28;20192;-84
2022/07/15 17:28:43;;;;;;;4.10;1.87;;;;;;;;;;5024578;28;20185;-84
2022/07/15 17:31:47;;;;;;;4.47;1.70;;;;;;;;;;5013326;28;20232;-83
2022/07/15 17:34:51;;;;;;;4.10;1.73;;;;;;;;;;5036196;28;20179;-84
2022/07/15 17:37:56;;;;;;;3.93;1.60;;;;;;;;;;5024866;28;20195;-84
2022/07/15 17:41:02;;;;;;;3.43;1.67;;;;;;;;;;5012995;28;20232;-85
2022/07/15 17:44:06;;;;;;;4.23;1.60;;;;;;;;;;5035997;28;20171;-84
2022/07/15 17:47:10;;;;;;;4.40;1.90;;;;;;;;;;5019904;28;20194;-83
2022/07/15 17:50:15;;;;;;;3.40;1.73;;;;;;;;;;5045172;28;20209;-84
2022/07/15 17:53:19;;;;;;;4.63;1.90;;;;;;;;;;5045958;28;20680;-84
2022/07/15 17:56:23;;;;;;;3.27;1.50;;;;;;;;;;5035506;28;20192;-83
2022/07/15 17:59:27;;;;;;;5.17;1.67;;;;;;;;;;5037205;28;20199;-84
2022/07/15 18:02:31;;;;;;;2.73;1.70;;;;;;;;;;5022995;28;20185;-84
2022/07/15 18:05:35;;;;;;;3.17;1.60;;;;;;;;;;5005356;28;20176;-84
2022/07/15 18:08:39;;;;;;;6.00;2.00;;;;;;;;;;5017893;28;20193;-84
2022/07/15 18:11:43;;;;;;;2.90;1.77;;;;;;;;;;5020539;28;20220;-84
2022/07/15 18:14:48;;;;;;;4.73;1.67;;;;;;;;;;5007372;28;20181;-83
2022/07/15 18:17:52;;;;;;;4.23;1.60;;;;;;;;;;5004821;28;20188;-84
2022/07/15 18:20:56;;;;;;;2.47;1.47;;;;;;;;;;5025428;28;20217;-83
2022/07/15 18:24:00;;;;;;;3.03;1.60;;;;;;;;;;5026685;28;20182;-84
2022/07/15 18:27:04;;;;;;;4.93;1.57;;;;;;;;;;5023640;28;20212;-83
2022/07/15 18:30:09;;;;;;;3.63;1.63;;;;;;;;;;5024795;28;20217;-84
2022/07/15 18:33:13;;;;;;;3.43;1.70;;;;;;;;;;5024971;28;20210;-84
2022/07/15 18:36:17;;;;;;;4.80;2.00;;;;;;;;;;5025776;28;20197;-84
2022/07/15 18:39:21;;;;;;;4.07;1.80;;;;;;;;;;5024543;28;20185;-84
2022/07/15 18:42:25;;;;;;;6.07;1.70;;;;;;;;;;5035204;28;20186;-83
2022/07/15 18:45:30;;;;;;;2.10;1.60;;;;;;;;;;5024345;28;20185;-84
2022/07/15 18:48:35;;;;;;;2.30;1.60;;;;;;;;;;5038916;28;20542;-84
2022/07/15 18:51:39;;;;;;;2.80;1.30;;;;;;;;;;5017030;28;20213;-84
2022/07/15 18:54:43;;;;;;;4.50;1.70;;;;;;;;;;5022326;28;20557;-84